Time;durP1;ratioP1;P1;durP2;ratioP2;P2;SDS_P1;SDS_P2;PMS_P1;PMS_P2;Temp;Humidity;BMP_temperature;BMP_pressure;BME280_temperature;BME280_humidity;BME280_pressure;Samples;Min_cycle;Max_cycle;Signal;HPM_P1;HPM_P2
2021/10/29 00:00:37;;;;;;;9.37;8.60;;;10.60;44.40;;;;;;10396161;28;20258;-65
2021/10/29 00:05:40;;;;;;;10.07;9.27;;;10.60;44.30;;;;;;10402322;28;20217;-65
2021/10/29 00:10:44;;;;;;;11.50;10.17;;;10.60;44.30;;;;;;10401048;28;20233;-65
2021/10/29 00:15:48;;;;;;;18.73;10.70;;;10.70;44.30;;;;;;10392754;28;20755;-65
2021/10/29 00:20:51;;;;;;;12.67;9.63;;;10.60;44.00;;;;;;10394738;28;20221;-65
2021/10/29 00:25:55;;;;;;;16.23;10.30;;;10.60;43.80;;;;;;10396679;28;20799;-65
2021/10/29 00:31:00;;;;;;;10.57;9.63;;;10.50;43.80;;;;;;10396234;28;20240;-65
2021/10/29 00:36:04;;;;;;;10.70;9.80;;;10.40;43.90;;;;;;10387617;28;20218;-65
2021/10/29 00:41:07;;;;;;;12.43;10.47;;;10.40;44.10;;;;;;10393307;28;20305;-65
2021/10/29 00:46:12;;;;;;;10.60;9.70;;;10.40;44.20;;;;;;10392402;28;20228;-65
2021/10/29 00:51:17;;;;;;;11.33;10.33;;;10.40;44.30;;;;;;10395356;28;20229;-65
2021/10/29 00:56:20;;;;;;;14.20;12.10;;;10.40;44.20;;;;;;10405329;28;20223;-65
2021/10/29 01:01:25;;;;;;;12.53;11.33;;;10.40;43.80;;;;;;10399063;28;20597;-65
2021/10/29 01:06:28;;;;;;;11.73;10.70;;;10.30;43.50;;;;;;10395237;28;20641;-65
2021/10/29 01:11:32;;;;;;;12.10;11.00;;;10.20;43.80;;;;;;10400907;28;20240;-65
2021/10/29 01:16:38;;;;;;;12.20;11.10;;;10.10;44.10;;;;;;10394022;28;20218;-65
2021/10/29 01:21:42;;;;;;;12.13;11.03;;;10.10;44.30;;;;;;10399157;28;20238;-65
2021/10/29 01:26:45;;;;;;;11.17;10.20;;;10.10;44.30;;;;;;10385424;28;20217;-66
2021/10/29 01:31:49;;;;;;;12.30;11.00;;;10.10;44.20;;;;;;10402024;28;20612;-65
2021/10/29 01:36:53;;;;;;;12.63;11.33;;;10.10;44.20;;;;;;10392887;28;20638;-65
2021/10/29 01:41:56;;;;;;;11.13;10.23;;;10.10;44.30;;;;;;10390287;28;20236;-65
2021/10/29 01:47:00;;;;;;;13.00;11.60;;;10.10;44.30;;;;;;10385383;28;20228;-66
2021/10/29 01:52:05;;;;;;;11.80;10.60;;;10.10;44.20;;;;;;10400185;28;20704;-66
2021/10/29 01:57:08;;;;;;;12.23;11.00;;;10.10;44.40;;;;;;10390782;28;20233;-65
2021/10/29 02:02:11;;;;;;;12.03;11.03;;;10.10;44.20;;;;;;10396896;28;20227;-65
2021/10/29 02:07:16;;;;;;;11.73;10.73;;;10.10;44.10;;;;;;10394271;28;20998;-65
2021/10/29 02:12:19;;;;;;;15.63;11.23;;;10.10;44.10;;;;;;10388514;28;20226;-65
2021/10/29 02:17:25;;;;;;;16.27;11.57;;;10.10;44.00;;;;;;10394882;28;20251;-65
2021/10/29 02:22:31;;;;;;;16.70;11.53;;;10.10;44.20;;;;;;10394493;28;20234;-65
2021/10/29 02:27:34;;;;;;;13.60;11.07;;;10.00;43.90;;;;;;10390610;28;20755;-65
2021/10/29 02:32:37;;;;;;;11.67;10.67;;;10.00;43.80;;;;;;10397440;28;20240;-65
2021/10/29 02:37:42;;;;;;;13.10;12.07;;;9.90;45.00;;;;;;10393218;28;20240;-66
2021/10/29 02:42:45;;;;;;;13.57;12.27;;;9.80;45.40;;;;;;10398753;28;20740;-65
2021/10/29 02:47:48;;;;;;;12.43;11.23;;;9.80;45.40;;;;;;10388994;28;20241;-65
2021/10/29 02:52:53;;;;;;;24.27;13.63;;;9.80;45.20;;;;;;10387532;28;20221;-65
2021/10/29 02:57:56;;;;;;;12.53;11.53;;;9.80;45.30;;;;;;10406673;28;20236;-65
2021/10/29 03:02:59;;;;;;;14.07;12.83;;;9.80;46.10;;;;;;10393823;28;20702;-65
2021/10/29 03:08:05;;;;;;;13.97;12.77;;;9.80;46.30;;;;;;10391079;28;20660;-65
2021/10/29 03:13:08;;;;;;;13.80;12.40;;;9.70;45.70;;;;;;10406237;28;20234;-65
2021/10/29 03:18:11;;;;;;;13.30;12.10;;;9.80;45.60;;;;;;10403283;28;20258;-65
2021/10/29 03:23:17;;;;;;;13.90;12.70;;;9.80;45.40;;;;;;10395998;28;20238;-65
2021/10/29 03:28:20;;;;;;;15.23;13.73;;;9.80;45.60;;;;;;10401379;28;20228;-65
2021/10/29 03:33:23;;;;;;;17.27;14.97;;;9.80;45.60;;;;;;10402761;28;20625;-66
2021/10/29 03:44:00;;;;;;;15.33;13.93;;;9.80;45.50;;;;;;10362879;28;20268;-65
2021/10/29 03:49:13;;;;;;;22.63;16.20;;;9.80;45.40;;;;;;10404766;28;20225;-66
2021/10/29 03:54:21;;;;;;;18.27;16.57;;;9.80;45.50;;;;;;10397262;28;20233;-65
2021/10/29 03:59:24;;;;;;;17.87;16.27;;;9.80;45.50;;;;;;10397681;28;20620;-65
2021/10/29 04:04:27;;;;;;;18.97;17.17;;;9.80;45.40;;;;;;10389125;28;20226;-65
2021/10/29 04:09:32;;;;;;;19.33;17.50;;;9.80;45.40;;;;;;10397629;28;20229;-65
2021/10/29 04:14:35;;;;;;;19.63;17.83;;;9.80;45.60;;;;;;10396672;28;20218;-65
2021/10/29 04:19:38;;;;;;;19.40;17.23;;;9.80;45.60;;;;;;10405748;28;20242;-65
2021/10/29 04:24:42;;;;;;;18.73;16.97;;;9.80;45.50;;;;;;10405800;28;20226;-65
2021/10/29 04:29:47;;;;;;;21.40;19.30;;;9.80;45.60;;;;;;10399977;28;21079;-65
2021/10/29 04:34:51;;;;;;;27.00;19.23;;;9.80;46.30;;;;;;10395945;28;20700;-65
2021/10/29 04:39:56;;;;;;;18.90;17.10;;;9.80;45.50;;;;;;10401992;28;20252;-65
2021/10/29 04:44:59;;;;;;;19.40;17.53;;;9.70;45.60;;;;;;10394541;28;20222;-65
2021/10/29 04:50:04;;;;;;;21.23;19.23;;;9.70;45.60;;;;;;10395658;28;20229;-65
2021/10/29 04:55:09;;;;;;;27.73;19.87;;;9.70;45.80;;;;;;10392373;28;20228;-65
2021/10/29 05:00:13;;;;;;;28.53;19.10;;;9.70;45.80;;;;;;10392945;28;20241;-65
2021/10/29 05:05:16;;;;;;;18.87;17.03;;;9.70;45.70;;;;;;10389519;28;20272;-65
2021/10/29 05:10:21;;;;;;;28.63;18.87;;;9.70;45.90;;;;;;10393132;28;20227;-65
2021/10/29 05:15:25;;;;;;;47.90;18.47;;;9.70;45.90;;;;;;10395575;28;20222;-65
2021/10/29 05:20:28;;;;;;;19.40;17.50;;;9.70;46.40;;;;;;10390228;28;20241;-65
2021/10/29 05:25:33;;;;;;;19.73;17.90;;;9.70;46.20;;;;;;10398788;28;20232;-65
2021/10/29 05:30:36;;;;;;;20.27;18.37;;;9.80;46.70;;;;;;10398337;28;20236;-65
2021/10/29 05:35:39;;;;;;;22.40;19.33;;;9.80;46.60;;;;;;10397750;28;20217;-65
2021/10/29 05:40:44;;;;;;;20.17;18.23;;;9.90;46.50;;;;;;10401220;28;20229;-66
2021/10/29 05:45:47;;;;;;;20.70;18.70;;;10.00;45.50;;;;;;10393204;28;20231;-66
2021/10/29 05:50:51;;;;;;;19.93;17.90;;;10.00;45.40;;;;;;10394516;28;20237;-65
2021/10/29 05:55:57;;;;;;;20.53;18.63;;;10.10;45.30;;;;;;10396521;28;20255;-66
2021/10/29 06:01:00;;;;;;;20.37;18.23;;;10.10;45.00;;;;;;10393600;28;20222;-66
2021/10/29 06:06:04;;;;;;;20.33;18.43;;;10.10;45.00;;;;;;10399570;28;20674;-65
2021/10/29 06:11:09;;;;;;;20.23;18.10;;;10.10;44.90;;;;;;10393479;28;20713;-65
2021/10/29 06:16:12;;;;;;;24.20;18.60;;;10.10;44.90;;;;;;10396889;28;20235;-65
2021/10/29 06:21:21;;;;;;;22.10;17.57;;;10.10;44.80;;;;;;10393364;28;20226;-65
2021/10/29 06:26:27;;;;;;;20.37;18.37;;;10.20;44.80;;;;;;10392646;28;20230;-66
2021/10/29 06:31:30;;;;;;;31.33;17.70;;;10.10;44.70;;;;;;10403367;28;20244;-65
2021/10/29 06:36:34;;;;;;;18.50;16.70;;;10.10;44.40;;;;;;10406839;28;20243;-65
2021/10/29 06:41:39;;;;;;;19.57;17.13;;;10.10;44.60;;;;;;10403580;28;20229;-65
2021/10/29 06:46:47;;;;;;;18.57;16.80;;;10.10;44.80;;;;;;10400770;28;20225;-66
2021/10/29 07:03:18;;;;;;;18.43;16.73;;;10.10;44.80;;;;;;10403201;28;20252;-65
2021/10/29 07:40:33;;;;;;;21.07;18.93;;;10.20;44.50;;;;;;10396252;28;20728;-65
2021/10/29 07:45:38;;;;;;;21.73;18.50;;;10.20;44.70;;;;;;10400352;28;20253;-65
2021/10/29 07:50:42;;;;;;;20.40;18.40;;;10.20;44.60;;;;;;10408843;28;20800;-65
2021/10/29 07:55:46;;;;;;;18.03;16.33;;;10.10;44.30;;;;;;10403360;28;20232;-65
2021/10/29 08:00:50;;;;;;;19.60;17.80;;;10.10;44.40;;;;;;10399402;28;20236;-65
2021/10/29 08:05:54;;;;;;;19.03;17.23;;;10.00;44.50;;;;;;10400599;28;20233;-65
2021/10/29 08:10:57;;;;;;;20.47;18.53;;;9.90;45.40;;;;;;10407814;28;20222;-65
2021/10/29 08:16:04;;;;;;;19.30;17.30;;;9.90;45.60;;;;;;10403787;28;20268;-65
2021/10/29 08:21:07;;;;;;;18.63;16.93;;;9.90;45.70;;;;;;10401569;28;20309;-65
2021/10/29 08:26:12;;;;;;;19.60;17.70;;;9.90;45.60;;;;;;10404709;28;20635;-65
2021/10/29 08:31:16;;;;;;;19.93;18.03;;;9.90;45.80;;;;;;10399309;28;20236;-65
2021/10/29 08:36:20;;;;;;;20.57;18.63;;;9.90;45.90;;;;;;10404846;28;20721;-65
2021/10/29 08:41:24;;;;;;;22.73;20.63;;;9.90;45.60;;;;;;10400489;28;20257;-65
2021/10/29 08:46:29;;;;;;;20.03;18.07;;;9.90;45.70;;;;;;10401584;28;20229;-65
2021/10/29 08:51:33;;;;;;;22.40;20.30;;;9.90;45.90;;;;;;10398609;28;20234;-65
2021/10/29 08:56:37;;;;;;;21.07;19.07;;;9.90;46.00;;;;;;10413352;28;20505;-65
2021/10/29 09:01:54;;;;;;;22.27;20.07;;;9.90;45.90;;;;;;10387747;28;20237;-65
2021/10/29 09:07:06;;;;;;;25.80;23.30;;;10.00;45.20;;;;;;10392990;28;20537;-65
2021/10/29 09:17:51;;;;;;;23.57;21.17;;;10.00;45.00;;;;;;10375047;28;20234;-65
2021/10/29 09:33:57;;;;;;;25.80;23.30;;;10.00;45.00;;;;;;10387300;28;20233;-65
2021/10/29 09:39:04;;;;;;;25.20;22.50;;;9.90;46.10;;;;;;10393897;28;20229;-65
2021/10/29 09:44:12;;;;;;;26.53;23.83;;;9.90;46.40;;;;;;10396421;28;20244;-65
2021/10/29 09:49:24;;;;;;;25.97;23.37;;;9.90;46.40;;;;;;10397246;28;20895;-65
2021/10/29 09:54:37;;;;;;;22.00;19.80;;;10.00;45.70;;;;;;10402343;28;20232;-67
2021/10/29 09:59:40;;;;;;;27.97;25.03;;;10.00;45.90;;;;;;10394419;28;20244;-65
2021/10/29 10:04:45;;;;;;;29.40;26.33;;;10.00;46.60;;;;;;10395053;28;20451;-65
2021/10/29 10:09:52;;;;;;;28.03;25.10;;;10.20;46.00;;;;;;10399353;28;20225;-66
2021/10/29 10:14:56;;;;;;;27.37;24.47;;;10.20;45.70;;;;;;10404168;28;20628;-65
2021/10/29 10:20:03;;;;;;;26.37;23.67;;;10.20;45.50;;;;;;10405164;28;20225;-66
2021/10/29 10:25:11;;;;;;;26.27;23.63;;;10.20;45.50;;;;;;10401235;28;20233;-65
2021/10/29 10:30:40;;;;;;;26.80;24.03;;;10.30;45.30;;;;;;10396264;28;20229;-66
2021/10/29 10:41:40;;;;;;;25.03;22.47;;;10.20;45.40;;;;;;10399985;28;20217;-65
2021/10/29 10:46:48;;;;;;;24.43;21.83;;;10.20;45.50;;;;;;10395341;28;20233;-65
2021/10/29 10:52:06;;;;;;;24.87;22.33;;;10.30;45.60;;;;;;10399563;28;20221;-65
2021/10/29 10:57:28;;;;;;;25.77;23.07;;;10.40;45.60;;;;;;10401859;28;20751;-65
2021/10/29 11:02:44;;;;;;;25.87;23.27;;;10.40;45.40;;;;;;10400985;28;20227;-66
2021/10/29 11:13:12;;;;;;;28.70;25.70;;;10.60;45.10;;;;;;10400916;28;20682;-66
2021/10/29 11:18:35;;;;;;;24.73;22.13;;;10.50;45.10;;;;;;10401547;28;20221;-66
2021/10/29 11:23:50;;;;;;;23.30;21.10;;;10.50;45.00;;;;;;10408597;28;20886;-66
2021/10/29 11:28:55;;;;;;;22.47;20.23;;;10.50;44.80;;;;;;10405844;28;20221;-66
2021/10/29 11:34:00;;;;;;;23.47;21.07;;;10.50;45.10;;;;;;10403230;28;20232;-66
2021/10/29 11:39:08;;;;;;;21.43;19.33;;;10.50;45.20;;;;;;10406935;28;20229;-66
2021/10/29 11:44:15;;;;;;;20.33;18.43;;;10.60;45.30;;;;;;10406192;28;20229;-66
2021/10/29 11:49:21;;;;;;;18.77;16.97;;;10.60;45.00;;;;;;10416582;28;20357;-66
2021/10/29 11:54:29;;;;;;;18.00;16.30;;;10.60;44.90;;;;;;10408092;28;20261;-66
2021/10/29 12:10:19;;;;;;;19.20;17.27;;;10.60;44.70;;;;;;10408626;28;20225;-66
2021/10/29 12:15:25;;;;;;;20.33;18.33;;;10.60;44.70;;;;;;10408683;28;20242;-66
2021/10/29 12:20:33;;;;;;;18.30;16.50;;;10.60;44.80;;;;;;10400612;28;20316;-66
2021/10/29 12:25:42;;;;;;;18.00;16.30;;;10.50;44.90;;;;;;10411387;28;20225;-66
2021/10/29 12:30:49;;;;;;;17.03;15.30;;;10.50;45.10;;;;;;10416825;28;20233;-66
2021/10/29 12:52:47;;;;;;;18.70;16.90;;;10.60;45.10;;;;;;10415449;28;20241;-66
2021/10/29 13:03:22;;;;;;;18.90;17.10;;;10.70;44.90;;;;;;10405108;28;20239;-66
2021/10/29 13:08:27;;;;;;;18.23;16.33;;;10.70;44.80;;;;;;10406804;28;20256;-66
2021/10/29 13:13:35;;;;;;;17.00;15.30;;;10.70;45.00;;;;;;10406641;28;20657;-66
2021/10/29 13:18:51;;;;;;;19.53;17.70;;;10.70;44.90;;;;;;10408068;28;20221;-66
2021/10/29 13:34:14;;;;;;;19.00;17.20;;;10.80;44.80;;;;;;10389482;28;20225;-66
2021/10/29 13:51:11;;;;;;;17.43;15.80;;;10.80;45.10;;;;;;10397964;28;20222;-66
2021/10/29 13:56:20;;;;;;;17.97;16.37;;;10.80;45.10;;;;;;10398509;28;20238;-66
2021/10/29 14:01:54;;;;;;;16.50;14.90;;;10.90;45.10;;;;;;10403447;28;20233;-66
2021/10/29 14:33:43;;;;;;;19.90;18.10;;;11.10;44.80;;;;;;10398838;28;20229;-66
2021/10/29 14:38:56;;;;;;;18.47;16.80;;;11.20;44.80;;;;;;10414865;28;20569;-66
2021/10/29 14:44:03;;;;;;;18.03;16.37;;;11.20;44.70;;;;;;10399722;28;20225;-65
2021/10/29 14:49:21;;;;;;;18.97;17.27;;;11.20;44.60;;;;;;10402771;28;20220;-66
2021/10/29 15:05:25;;;;;;;19.37;17.37;;;11.20;44.50;;;;;;10404213;28;20710;-66
2021/10/29 15:32:21;;;;;;;16.97;14.30;;;11.00;44.40;;;;;;10403907;28;20229;-66
2021/10/29 15:43:01;;;;;;;20.23;18.33;;;11.00;44.60;;;;;;10405117;28;20709;-66
2021/10/29 15:48:08;;;;;;;21.63;19.43;;;11.00;44.60;;;;;;10417109;28;20213;-66
2021/10/29 15:53:14;;;;;;;19.87;17.97;;;11.00;44.50;;;;;;10405735;28;20233;-66
2021/10/29 16:03:45;;;;;;;21.57;19.37;;;11.00;44.50;;;;;;10396645;28;20236;-66
2021/10/29 16:19:32;;;;;;;24.30;21.83;;;11.00;44.50;;;;;;10395829;28;20226;-66
2021/10/29 16:24:42;;;;;;;21.20;19.13;;;11.00;44.40;;;;;;10407092;28;20222;-66
2021/10/29 16:29:46;;;;;;;22.70;20.37;;;11.00;44.30;;;;;;10400865;28;20233;-66
2021/10/29 16:34:49;;;;;;;20.43;18.50;;;10.90;44.40;;;;;;10409414;28;20230;-66
2021/10/29 16:39:54;;;;;;;24.50;22.10;;;10.90;44.40;;;;;;10407548;28;20221;-66
2021/10/29 16:44:57;;;;;;;24.10;21.73;;;10.90;44.40;;;;;;10400385;28;20218;-66
2021/10/29 16:50:00;;;;;;;23.43;21.03;;;10.80;44.30;;;;;;10402381;28;20263;-66
2021/10/29 16:55:06;;;;;;;24.33;21.83;;;10.80;44.50;;;;;;10398101;28;20685;-66
2021/10/29 17:00:15;;;;;;;24.53;22.03;;;10.70;44.50;;;;;;10395308;28;20718;-66
2021/10/29 17:05:18;;;;;;;22.97;20.67;;;10.70;44.60;;;;;;10400100;28;20428;-66
2021/10/29 17:10:23;;;;;;;24.37;21.87;;;10.70;44.60;;;;;;10408951;28;20240;-66
2021/10/29 17:15:27;;;;;;;24.17;21.73;;;10.70;44.50;;;;;;10399269;28;20225;-66
2021/10/29 17:20:30;;;;;;;20.07;18.07;;;10.70;44.40;;;;;;10401233;28;20252;-66
2021/10/29 17:25:35;;;;;;;22.07;19.83;;;10.60;44.50;;;;;;10406035;28;20231;-66
2021/10/29 17:30:38;;;;;;;21.10;19.03;;;10.60;44.70;;;;;;10406671;28;20616;-66
2021/10/29 17:35:41;;;;;;;21.87;19.67;;;10.60;44.70;;;;;;10400721;28;20656;-66
2021/10/29 17:40:46;;;;;;;21.77;19.57;;;10.60;44.60;;;;;;10403442;28;20234;-66
2021/10/29 17:45:51;;;;;;;19.43;17.37;;;10.60;44.70;;;;;;10399130;28;20236;-66
2021/10/29 17:50:54;;;;;;;21.67;19.47;;;10.60;44.90;;;;;;10400580;28;20225;-66
2021/10/29 17:55:59;;;;;;;22.10;19.87;;;10.60;44.80;;;;;;10385221;28;20230;-66
2021/10/29 18:01:02;;;;;;;20.80;18.80;;;10.60;44.70;;;;;;10393316;28;20217;-66
2021/10/29 18:06:06;;;;;;;21.83;19.67;;;10.70;44.80;;;;;;10402110;28;20226;-66
2021/10/29 18:11:10;;;;;;;22.43;20.07;;;10.60;44.70;;;;;;10405139;28;20233;-66
2021/10/29 18:16:13;;;;;;;22.53;19.90;;;10.60;44.70;;;;;;10408183;28;20226;-66
2021/10/29 18:21:17;;;;;;;19.30;17.37;;;10.60;44.70;;;;;;10402638;28;20231;-66
2021/10/29 18:26:22;;;;;;;18.67;16.80;;;10.60;44.70;;;;;;10409078;28;20225;-66
2021/10/29 18:31:27;;;;;;;22.10;19.90;;;10.60;44.80;;;;;;10401806;28;20237;-66
2021/10/29 18:36:31;;;;;;;18.00;16.20;;;10.60;44.70;;;;;;10414480;28;20252;-66
2021/10/29 18:41:36;;;;;;;21.57;19.47;;;10.60;44.70;;;;;;10404656;28;20228;-66
2021/10/29 18:46:39;;;;;;;22.20;19.90;;;10.60;44.80;;;;;;10414886;28;20615;-66
2021/10/29 18:51:42;;;;;;;22.47;20.17;;;10.60;44.80;;;;;;10410499;28;20239;-66
2021/10/29 18:56:49;;;;;;;22.73;19.33;;;10.60;44.70;;;;;;10402958;28;20249;-66
2021/10/29 19:01:52;;;;;;;22.37;19.63;;;10.60;44.60;;;;;;10403658;28;20592;-66
2021/10/29 19:07:01;;;;;;;22.43;20.00;;;10.60;44.40;;;;;;10403578;28;20340;-66
2021/10/29 19:12:07;;;;;;;23.73;19.93;;;10.60;44.30;;;;;;10406703;28;20222;-66
2021/10/29 19:17:10;;;;;;;22.00;19.60;;;10.50;44.20;;;;;;10401589;28;20241;-66
2021/10/29 19:22:13;;;;;;;22.67;19.67;;;10.40;44.20;;;;;;10406541;28;20913;-66
2021/10/29 19:27:18;;;;;;;23.13;20.63;;;10.30;44.40;;;;;;10410088;28;20229;-66
2021/10/29 19:32:22;;;;;;;22.40;18.80;;;10.20;44.80;;;;;;10404703;28;20925;-66
2021/10/29 19:37:26;;;;;;;19.23;16.73;;;10.10;44.60;;;;;;10401683;28;20239;-66
2021/10/29 19:42:31;;;;;;;27.47;20.70;;;10.00;44.80;;;;;;10399837;28;20243;-66
2021/10/29 19:47:34;;;;;;;20.00;17.87;;;10.00;45.30;;;;;;10398853;28;20225;-66
2021/10/29 19:52:38;;;;;;;24.30;20.80;;;10.00;45.40;;;;;;10394477;28;20226;-66
2021/10/29 19:58:05;;;;;;;24.07;20.57;;;10.00;45.30;;;;;;10409287;28;20236;-66
2021/10/29 20:03:08;;;;;;;21.40;19.10;;;10.00;45.20;;;;;;10401122;28;20229;-66
2021/10/29 20:08:12;;;;;;;24.83;21.43;;;10.00;45.20;;;;;;10400807;28;20248;-67
2021/10/29 20:13:16;;;;;;;21.57;19.27;;;10.00;45.50;;;;;;10400716;28;20789;-66
2021/10/29 20:18:19;;;;;;;21.53;19.30;;;10.00;45.60;;;;;;10399903;28;20537;-67
2021/10/29 20:23:24;;;;;;;21.67;18.27;;;10.10;45.40;;;;;;10402601;28;20574;-66
2021/10/29 20:28:29;;;;;;;21.10;18.90;;;10.00;45.30;;;;;;10403738;28;20226;-66
2021/10/29 20:33:32;;;;;;;17.83;16.00;;;10.10;45.50;;;;;;10399833;28;20225;-65
2021/10/29 20:38:35;;;;;;;22.13;17.27;;;10.10;45.50;;;;;;10397686;28;20308;-65
2021/10/29 20:43:40;;;;;;;23.93;18.53;;;10.10;45.30;;;;;;10403015;28;20308;-66
2021/10/29 20:48:43;;;;;;;20.47;18.23;;;10.10;45.30;;;;;;10407346;28;21056;-65
2021/10/29 20:53:47;;;;;;;26.60;20.87;;;10.10;45.30;;;;;;10405920;28;20592;-66
2021/10/29 20:58:52;;;;;;;22.13;18.13;;;10.10;45.30;;;;;;10413138;28;20233;-65
2021/10/29 21:03:57;;;;;;;23.50;19.20;;;10.10;45.30;;;;;;10396025;28;20232;-66
2021/10/29 21:09:00;;;;;;;22.20;19.53;;;10.00;45.10;;;;;;10404891;28;20226;-66
2021/10/29 21:14:08;;;;;;;21.13;18.90;;;10.00;45.30;;;;;;10396199;28;20229;-66
2021/10/29 21:19:11;;;;;;;27.60;20.27;;;10.00;45.40;;;;;;10403786;28;20826;-66
2021/10/29 21:24:14;;;;;;;23.83;19.50;;;10.00;45.40;;;;;;10400664;28;20616;-66
2021/10/29 21:29:19;;;;;;;22.77;19.60;;;10.00;45.40;;;;;;10402247;28;20237;-65
2021/10/29 21:34:28;;;;;;;21.70;19.40;;;10.00;45.80;;;;;;10406258;28;20590;-65
2021/10/29 21:39:32;;;;;;;19.67;17.53;;;10.00;45.60;;;;;;10400059;28;20248;-65
2021/10/29 21:44:37;;;;;;;19.73;16.80;;;10.00;45.40;;;;;;10405085;28;20221;-66
2021/10/29 21:49:40;;;;;;;27.70;18.17;;;10.00;45.60;;;;;;10406292;28;20857;-65
2021/10/29 21:54:43;;;;;;;21.40;19.10;;;10.10;45.60;;;;;;10409275;28;20248;-66
2021/10/29 21:59:50;;;;;;;24.13;20.70;;;10.10;45.50;;;;;;10395919;28;20239;-65
2021/10/29 22:04:53;;;;;;;23.33;20.80;;;10.00;45.60;;;;;;10387191;28;20221;-65
2021/10/29 22:09:56;;;;;;;20.23;17.80;;;10.00;45.60;;;;;;10388157;28;20593;-66
2021/10/29 22:15:02;;;;;;;34.47;18.43;;;10.10;45.90;;;;;;10401945;28;20681;-65
2021/10/29 22:20:07;;;;;;;34.27;20.83;;;10.10;45.80;;;;;;10399697;28;20589;-65
2021/10/29 22:25:10;;;;;;;23.50;20.93;;;10.10;45.50;;;;;;10396733;28;20316;-65
2021/10/29 22:30:16;;;;;;;23.07;20.43;;;10.10;45.50;;;;;;10403574;28;20602;-65
2021/10/29 22:35:19;;;;;;;36.70;21.23;;;10.10;45.80;;;;;;10396956;28;20226;-66
2021/10/29 22:40:22;;;;;;;20.63;18.57;;;10.10;45.50;;;;;;10396255;28;20825;-65
2021/10/29 22:45:27;;;;;;;21.47;16.70;;;10.20;45.40;;;;;;10394876;28;20249;-66
2021/10/29 22:50:30;;;;;;;35.33;17.50;;;10.10;45.30;;;;;;10400519;28;20259;-65
2021/10/29 22:55:34;;;;;;;37.97;18.90;;;10.00;45.40;;;;;;10402912;28;20233;-65
2021/10/29 23:00:38;;;;;;;35.87;17.67;;;10.00;45.40;;;;;;10402254;28;20238;-66
2021/10/29 23:05:47;;;;;;;17.00;14.90;;;9.90;46.50;;;;;;10401055;28;20233;-65
2021/10/29 23:10:51;;;;;;;21.23;16.03;;;9.90;46.20;;;;;;10394274;28;20286;-65
2021/10/29 23:15:55;;;;;;;62.53;15.70;;;9.80;46.10;;;;;;10398697;28;20230;-65
2021/10/29 23:20:59;;;;;;;16.23;14.60;;;9.80;46.30;;;;;;10402864;28;20303;-67
2021/10/29 23:26:03;;;;;;;24.90;15.87;;;9.70;47.00;;;;;;10407049;28;20270;-65
2021/10/29 23:31:08;;;;;;;24.40;15.40;;;9.60;46.50;;;;;;10402922;28;20230;-66
2021/10/29 23:36:11;;;;;;;16.43;14.83;;;9.60;46.50;;;;;;10401117;28;20229;-65
2021/10/29 23:41:15;;;;;;;24.30;14.37;;;9.60;46.50;;;;;;10406165;23;20313;-70
2021/10/29 23:46:19;;;;;;;27.37;14.00;;;9.60;46.50;;;;;;10388906;28;20222;-69
2021/10/29 23:51:22;;;;;;;14.20;12.93;;;9.60;46.50;;;;;;10389178;28;20226;-70
2021/10/29 23:56:25;;;;;;;14.97;13.47;;;9.60;46.70;;;;;;10389842;28;20647;-72
